Time;durP1;ratioP1;P1;durP2;ratioP2;P2;SDS_P1;SDS_P2;PMS_P1;PMS_P2;Temp;Humidity;BMP_temperature;BMP_pressure;BME280_temperature;BME280_humidity;BME280_pressure;Samples;Min_cycle;Max_cycle;Signal;HPM_P1;HPM_P2
2023/08/05 00:02:24;;;;;;;5.10;2.40;;;;;;;14.66;100.00;101556.16;10437834;28;20033;-65
2023/08/05 00:07:25;;;;;;;5.47;2.58;;;;;;;14.91;100.00;101599.84;10434788;28;20044;-65
2023/08/05 00:12:25;;;;;;;8.90;2.58;;;;;;;14.91;100.00;101602.63;10431925;28;20508;-66
2023/08/05 00:17:26;;;;;;;6.25;2.67;;;;;;;14.88;100.00;101608.69;10421008;28;20485;-65
2023/08/05 00:22:26;;;;;;;7.20;3.25;;;;;;;14.86;100.00;101588.72;10423964;28;20044;-67
2023/08/05 00:27:27;;;;;;;5.82;3.63;;;;;;;14.82;100.00;101587.56;10429704;28;20038;-64
2023/08/05 00:32:28;;;;;;;6.75;3.60;;;;;;;14.78;100.00;101580.88;10426798;28;20053;-65
2023/08/05 00:37:28;;;;;;;11.63;4.15;;;;;;;14.73;100.00;101579.75;10438028;28;20044;-66
2023/08/05 00:42:28;;;;;;;9.48;4.03;;;;;;;14.68;100.00;101576.94;10428070;28;20056;-65
2023/08/05 00:47:29;;;;;;;6.63;3.30;;;;;;;14.68;100.00;101571.41;10436211;28;20103;-65
2023/08/05 00:52:29;;;;;;;7.32;3.60;;;;;;;14.65;100.00;101569.16;10443241;28;20029;-67
2023/08/05 00:57:30;;;;;;;13.00;3.90;;;;;;;14.54;100.00;101559.88;10442013;28;20301;-66
2023/08/05 01:02:30;;;;;;;7.38;3.60;;;;;;;14.58;100.00;101556.63;10415516;28;20045;-66
2023/08/05 01:07:32;;;;;;;6.40;3.72;;;;;;;14.53;100.00;101549.91;10435843;28;20104;-65
2023/08/05 01:12:33;;;;;;;5.32;3.72;;;;;;;14.51;100.00;101532.72;10433015;28;20037;-65
2023/08/05 01:17:33;;;;;;;10.55;4.50;;;;;;;14.43;100.00;101537.91;10437418;28;20038;-66
2023/08/05 01:22:43;;;;;;;11.27;4.93;;;;;;;14.37;100.00;101550.88;10445195;28;20048;-65
2023/08/05 01:27:43;;;;;;;5.13;3.50;;;;;;;14.35;100.00;101549.47;10438751;28;20121;-65
2023/08/05 01:32:44;;;;;;;10.05;4.00;;;;;;;14.09;100.00;101516.00;10423145;28;20115;-65
2023/08/05 01:37:44;;;;;;;9.52;4.20;;;;;;;14.30;100.00;101553.00;10425560;28;20092;-65
2023/08/05 01:42:46;;;;;;;6.88;4.18;;;;;;;14.07;100.00;101520.97;10443674;28;20128;-65
2023/08/05 01:47:46;;;;;;;10.82;3.97;;;;;;;14.15;100.00;101539.88;10432971;28;20076;-66
2023/08/05 01:52:46;;;;;;;10.18;3.72;;;;;;;14.03;100.00;101548.31;10444041;28;20041;-65
2023/08/05 01:57:47;;;;;;;6.47;4.03;;;;;;;13.88;100.00;101540.69;10438616;28;20072;-65
2023/08/05 02:02:47;;;;;;;7.93;4.10;;;;;;;13.56;100.00;101515.72;10431774;28;20603;-67
2023/08/05 02:07:48;;;;;;;7.72;3.80;;;;;;;13.59;100.00;101536.50;10428190;28;20124;-65
2023/08/05 02:12:48;;;;;;;5.05;3.63;;;;;;;13.51;100.00;101544.16;10440580;28;20041;-65
2023/08/05 02:17:49;;;;;;;7.38;3.72;;;;;;;13.50;100.00;101539.72;10439821;28;20049;-65
2023/08/05 02:22:49;;;;;;;5.05;3.35;;;;;;;13.49;100.00;101529.72;10434934;28;20055;-65
2023/08/05 02:27:50;;;;;;;6.65;4.00;;;;;;;13.40;100.00;101528.53;10441403;28;20036;-65
2023/08/05 02:32:50;;;;;;;10.77;3.95;;;;;;;13.28;100.00;101530.56;10437635;28;20067;-66
2023/08/05 02:37:51;;;;;;;10.88;4.13;;;;;;;13.17;100.00;101514.91;10424520;28;20457;-64
2023/08/05 02:42:51;;;;;;;9.13;3.60;;;;;;;13.07;100.00;101519.22;10428936;28;20484;-65
2023/08/05 02:47:52;;;;;;;11.68;4.40;;;;;;;13.05;100.00;101537.97;10441628;28;20443;-66
2023/08/05 02:52:52;;;;;;;6.43;3.85;;;;;;;13.05;100.00;101534.38;10434802;28;20060;-65
2023/08/05 02:57:52;;;;;;;8.50;4.20;;;;;;;13.12;100.00;101533.13;10434862;28;20497;-65
2023/08/05 03:02:53;;;;;;;9.48;4.03;;;;;;;13.18;100.00;101535.94;10439770;28;20684;-65
2023/08/05 03:07:55;;;;;;;8.35;3.80;;;;;;;13.21;100.00;101529.88;10435197;28;20114;-68
2023/08/05 03:12:55;;;;;;;11.15;4.45;;;;;;;13.17;100.00;101518.53;10424700;28;20100;-65
2023/08/05 03:17:56;;;;;;;7.45;4.60;;;;;;;12.85;100.00;101472.19;10430813;28;20382;-65
2023/08/05 03:22:56;;;;;;;8.43;4.22;;;;;;;13.18;100.00;101513.81;10438393;28;20426;-65
2023/08/05 03:27:57;;;;;;;7.90;4.15;;;;;;;13.16;100.00;101516.00;10423336;28;20562;-65
2023/08/05 03:32:57;;;;;;;4.97;3.60;;;;;;;13.09;100.00;101500.44;10436901;28;20033;-65
2023/08/05 03:37:58;;;;;;;11.88;4.63;;;;;;;13.14;100.00;101502.44;10432206;28;20504;-65
2023/08/05 03:42:58;;;;;;;8.52;4.32;;;;;;;13.15;100.00;101508.78;10439832;28;20033;-65
2023/08/05 03:47:59;;;;;;;8.15;4.30;;;;;;;13.15;100.00;101519.84;10433208;28;20037;-66
2023/08/05 03:52:59;;;;;;;7.07;4.53;;;;;;;13.16;100.00;101510.47;10432695;28;20060;-65
2023/08/05 03:58:00;;;;;;;7.95;3.47;;;;;;;13.21;100.00;101510.53;10440808;28;20096;-65
2023/08/05 04:03:00;;;;;;;7.18;4.18;;;;;;;13.18;100.00;101508.28;10416379;28;20045;-65
2023/08/05 04:08:01;;;;;;;11.85;4.53;;;;;;;13.25;100.00;101507.03;10437845;28;20033;-67
2023/08/05 04:13:03;;;;;;;7.78;4.47;;;;;;;13.29;100.00;101515.66;10431711;28;20049;-65
2023/08/05 04:18:04;;;;;;;7.38;4.03;;;;;;;13.30;100.00;101506.28;10437445;28;20497;-65
2023/08/05 04:23:07;;;;;;;7.80;4.00;;;;;;;13.34;100.00;101514.91;10432589;28;20037;-66
2023/08/05 04:28:11;;;;;;;11.43;3.92;;;;;;;13.09;100.00;101431.34;10436160;28;20045;-65
2023/08/05 04:33:11;;;;;;;5.53;3.55;;;;;;;13.06;100.00;101440.16;10435448;28;20063;-65
2023/08/05 04:38:12;;;;;;;9.00;3.63;;;;;;;13.47;100.00;101468.31;10437346;28;20038;-65
2023/08/05 04:43:12;;;;;;;8.30;3.95;;;;;;;13.46;100.00;101455.59;10434735;28;20037;-66
2023/08/05 04:48:13;;;;;;;9.32;5.45;;;;;;;13.48;100.00;101452.56;10435272;28;20045;-65
2023/08/05 04:53:15;;;;;;;6.70;3.95;;;;;;;13.44;100.00;101441.19;10427932;28;20038;-66
2023/08/05 04:58:15;;;;;;;7.68;4.10;;;;;;;13.38;100.00;101441.38;10434858;28;20144;-66
2023/08/05 05:03:16;;;;;;;8.30;3.72;;;;;;;13.30;100.00;101446.25;10430085;28;20045;-65
2023/08/05 05:08:16;;;;;;;9.57;5.00;;;;;;;13.26;100.00;101441.47;10411665;28;20520;-66
2023/08/05 05:13:17;;;;;;;7.85;4.25;;;;;;;13.26;100.00;101438.72;10439067;28;20423;-65
2023/08/05 05:18:18;;;;;;;8.80;4.47;;;;;;;13.27;100.00;101434.84;10432763;28;20045;-65
2023/08/05 05:23:18;;;;;;;11.20;4.22;;;;;;;13.29;100.00;101422.50;10441455;28;20060;-66
2023/08/05 05:28:19;;;;;;;7.13;4.15;;;;;;;13.31;100.00;101420.31;10429687;28;20103;-66
2023/08/05 05:33:19;;;;;;;9.23;4.00;;;;;;;13.39;100.00;101413.44;10441281;28;20044;-65
2023/08/05 05:38:19;;;;;;;7.95;3.58;;;;;;;13.68;100.00;101413.19;10424402;28;20051;-66
2023/08/05 05:43:20;;;;;;;8.52;4.40;;;;;;;14.03;100.00;101401.59;10440942;28;20037;-65
2023/08/05 05:48:21;;;;;;;9.45;3.83;;;;;;;14.44;100.00;101412.13;10439399;28;20041;-66
2023/08/05 05:53:21;;;;;;;7.43;4.95;;;;;;;14.88;100.00;101403.53;10439063;28;20092;-66
2023/08/05 05:58:22;;;;;;;9.80;5.38;;;;;;;15.46;100.00;101397.91;10437822;28;20041;-66
2023/08/05 06:03:22;;;;;;;9.80;3.20;;;;;;;15.98;100.00;101394.09;10422976;28;20513;-65
2023/08/05 06:08:23;;;;;;;6.13;2.53;;;;;;;16.39;100.00;101394.06;10442440;28;20048;-65
2023/08/05 06:13:23;;;;;;;4.03;2.53;;;;;;;16.64;100.00;101395.94;10420228;28;20048;-65
2023/08/05 06:18:24;;;;;;;6.28;2.75;;;;;;;16.57;100.00;101394.56;10436089;28;20064;-66
2023/08/05 06:23:24;;;;;;;4.75;2.00;;;;;;;16.30;100.00;101396.56;10428474;28;20076;-65
2023/08/05 06:28:25;;;;;;;6.00;2.05;;;;;;;16.05;100.00;101399.38;10484403;28;20485;-66
2023/08/05 06:33:25;;;;;;;4.30;2.15;;;;;;;15.82;100.00;101393.28;10473699;28;20041;-65
2023/08/05 06:38:26;;;;;;;3.13;2.00;;;;;;;15.70;100.00;101414.88;10478893;28;20048;-66
2023/08/05 06:43:27;;;;;;;3.85;1.77;;;;;;;15.86;100.00;101401.88;10479712;28;20044;-65
2023/08/05 06:48:27;;;;;;;3.22;2.00;;;;;;;16.08;100.00;101394.09;10479450;28;20040;-65
2023/08/05 06:53:28;;;;;;;6.72;2.35;;;;;;;16.43;100.00;101395.16;10474874;28;20323;-66
2023/08/05 06:58:28;;;;;;;6.90;2.85;;;;;;;16.82;100.00;101377.00;10474569;28;20040;-66
2023/08/05 07:03:29;;;;;;;6.30;1.58;;;;;;;16.82;100.00;101368.66;10462115;28;20067;-66
2023/08/05 07:08:29;;;;;;;3.90;1.50;;;;;;;16.96;100.00;101366.09;10468938;28;20123;-65
2023/08/05 07:13:30;;;;;;;4.10;1.63;;;;;;;17.24;100.00;101370.97;10479807;28;20068;-64
2023/08/05 07:18:30;;;;;;;4.03;1.45;;;;;;;17.76;100.00;101379.81;10477580;28;20055;-65
2023/08/05 07:23:31;;;;;;;4.13;1.50;;;;;;;18.23;100.00;101367.16;10481766;28;20499;-66
2023/08/05 07:28:31;;;;;;;2.97;1.25;;;;;;;18.41;100.00;101373.91;10475162;28;20504;-67
2023/08/05 07:33:32;;;;;;;3.95;1.65;;;;;;;18.58;100.00;101353.94;10480950;28;20547;-67
2023/08/05 07:38:35;;;;;;;3.03;1.20;;;;;;;18.50;100.00;101365.72;10464667;28;20048;-67
2023/08/05 07:43:36;;;;;;;5.68;1.52;;;;;;;18.45;100.00;101365.81;10478993;28;20044;-67
2023/08/05 07:48:37;;;;;;;3.45;1.30;;;;;;;18.53;100.00;101356.78;10475893;28;20563;-67
2023/08/05 07:53:37;;;;;;;3.97;1.30;;;;;;;18.62;100.00;101338.25;10462097;28;20045;-67
2023/08/05 07:58:44;;;;;;;2.65;1.02;;;;;;;18.62;100.00;101320.72;10471913;28;20037;-67
2023/08/05 08:03:45;;;;;;;1.92;1.08;;;;;;;18.46;100.00;101325.63;10473816;28;20052;-67
2023/08/05 08:08:46;;;;;;;2.65;1.10;;;;;;;18.22;100.00;101318.09;10465214;28;20037;-66
2023/08/05 08:13:47;;;;;;;2.90;1.50;;;;;;;18.69;100.00;101316.44;10444846;28;20049;-67
2023/08/05 08:18:47;;;;;;;3.53;1.13;;;;;;;19.39;100.00;101306.56;10448775;28;20045;-67
2023/08/05 08:23:48;;;;;;;3.40;1.00;;;;;;;19.95;100.00;101299.22;10452618;28;20075;-67
2023/08/05 08:28:48;;;;;;;1.70;0.73;;;;;;;19.61;100.00;101285.53;10447657;28;20041;-68
2023/08/05 08:33:50;;;;;;;3.90;1.85;;;;;;;19.57;100.00;101290.88;10443815;28;20091;-66
2023/08/05 08:38:50;;;;;;;4.32;1.15;;;;;;;19.75;100.00;101292.84;10439528;28;20052;-67
2023/08/05 08:43:51;;;;;;;1.08;0.73;;;;;;;19.82;100.00;101264.50;10449555;28;20033;-66
2023/08/05 08:48:54;;;;;;;2.58;1.40;;;;;;;20.08;100.00;101275.22;10450677;28;20048;-67
2023/08/05 08:53:55;;;;;;;4.15;1.10;;;;;;;19.96;100.00;101262.56;10442246;28;20120;-68
2023/08/05 08:58:56;;;;;;;1.73;0.95;;;;;;;19.83;100.00;101271.75;10447465;28;20056;-67
2023/08/05 09:03:56;;;;;;;2.00;1.00;;;;;;;19.96;100.00;101276.53;10486528;28;20025;-67
2023/08/05 09:08:57;;;;;;;1.60;0.73;;;;;;;19.83;100.00;101238.22;10478031;28;20044;-68
2023/08/05 09:13:57;;;;;;;2.05;0.82;;;;;;;19.99;100.00;101229.53;10456104;28;20067;-69
2023/08/05 09:18:58;;;;;;;3.05;1.05;;;;;;;20.18;100.00;101216.31;10447700;28;20049;-68
2023/08/05 09:23:58;;;;;;;1.98;1.10;;;;;;;20.46;100.00;101221.88;10462234;28;20040;-68
2023/08/05 09:28:59;;;;;;;2.63;0.90;;;;;;;20.69;100.00;101214.41;10455522;28;20040;-68
2023/08/05 09:33:59;;;;;;;3.00;1.17;;;;;;;20.91;100.00;101199.63;10476313;28;20159;-68
2023/08/05 09:39:10;;;;;;;4.50;1.48;;;;;;;20.66;100.00;101212.25;10479036;28;20068;-69
2023/08/05 09:44:10;;;;;;;3.50;0.90;;;;;;;20.80;100.00;101198.22;10484614;28;20085;-68
2023/08/05 09:49:15;;;;;;;1.52;1.00;;;;;;;21.21;100.00;101178.47;10483100;28;20037;-68
2023/08/05 09:54:18;;;;;;;2.58;1.08;;;;;;;21.52;100.00;101164.50;10459881;28;20486;-68
2023/08/05 09:59:18;;;;;;;1.25;0.98;;;;;;;21.99;100.00;101168.81;10456369;28;20063;-68
2023/08/05 10:04:19;;;;;;;3.45;1.00;;;;;;;22.15;100.00;101158.81;10461108;28;20099;-68
2023/08/05 10:09:20;;;;;;;4.18;1.17;;;;;;;22.33;100.00;101149.31;10443789;28;20045;-68
2023/08/05 10:14:20;;;;;;;3.00;1.17;;;;;;;22.35;100.00;101134.97;10455146;28;20472;-68
2023/08/05 10:19:50;;;;;;;2.72;1.05;;;;;;;22.42;100.00;101134.47;10459170;28;20040;-68
2023/08/05 10:24:51;;;;;;;2.85;0.98;;;;;;;22.12;100.00;101115.44;10454618;28;20040;-69
2023/08/05 10:29:52;;;;;;;3.70;1.08;;;;;;;22.27;100.00;101122.56;10443319;28;20113;-67
2023/08/05 10:35:25;;;;;;;1.55;0.70;;;;;;;22.03;100.00;101113.75;10441308;28;20048;-67
2023/08/05 10:40:44;;;;;;;1.42;1.00;;;;;;;21.58;100.00;101071.91;10458922;28;20052;-68
2023/08/05 10:45:44;;;;;;;1.38;1.00;;;;;;;21.89;100.00;101106.31;10448934;28;20056;-69
2023/08/05 10:50:45;;;;;;;2.60;1.00;;;;;;;22.33;100.00;101087.59;10430871;28;20048;-68
2023/08/05 10:55:46;;;;;;;2.38;0.90;;;;;;;22.69;100.00;101077.19;10431545;28;20029;-68
2023/08/05 11:00:58;;;;;;;3.40;1.15;;;;;;;22.38;100.00;101102.63;10457323;28;20068;-68
2023/08/05 11:06:02;;;;;;;1.55;0.93;;;;;;;22.47;100.00;101086.59;10457430;28;20467;-68
2023/08/05 11:11:06;;;;;;;4.30;1.27;;;;;;;22.72;100.00;101082.16;10456837;28;20037;-68
2023/08/05 11:16:14;;;;;;;4.47;1.13;;;;;;;22.74;100.00;101063.81;10456240;28;20098;-68
2023/08/05 11:21:15;;;;;;;3.25;1.30;;;;;;;23.20;100.00;101053.00;10462657;28;20053;-68
2023/08/05 11:26:15;;;;;;;2.63;1.25;;;;;;;23.75;100.00;101040.00;10479117;28;20075;-69
2023/08/05 11:31:23;;;;;;;3.00;1.42;;;;;;;23.27;100.00;101030.00;10458800;28;20041;-69
2023/08/05 11:36:27;;;;;;;5.13;2.13;;;;;;;22.84;100.00;101028.13;10398653;28;20037;-68
2023/08/05 11:41:27;;;;;;;2.97;1.27;;;;;;;23.07;100.00;101007.13;10452181;28;20029;-67
2023/08/05 11:46:29;;;;;;;1.65;1.10;;;;;;;23.30;100.00;101009.69;10449408;28;20083;-68
2023/08/05 11:51:49;;;;;;;2.28;1.40;;;;;;;23.04;100.00;101013.41;10457051;28;20064;-68
2023/08/05 11:56:49;;;;;;;2.95;1.17;;;;;;;23.83;100.00;101010.22;10444748;28;20400;-68
2023/08/05 12:01:50;;;;;;;4.65;1.10;;;;;;;24.00;100.00;100989.59;10435805;28;20045;-68
2023/08/05 12:06:50;;;;;;;1.98;1.13;;;;;;;23.73;100.00;100986.94;10452279;28;20044;-67
2023/08/05 12:11:55;;;;;;;2.10;1.10;;;;;;;23.70;100.00;100969.94;10452229;28;20052;-67
2023/08/05 12:16:59;;;;;;;2.80;1.40;;;;;;;23.59;100.00;100968.69;10464946;28;20033;-67
2023/08/05 12:21:59;;;;;;;4.03;1.48;;;;;;;23.63;100.00;100961.25;10452667;28;20064;-67
2023/08/05 12:27:00;;;;;;;4.30;2.10;;;;;;;23.45;100.00;100966.13;10419359;28;20064;-68
2023/08/05 12:32:00;;;;;;;5.38;3.55;;;;;;;23.35;100.00;100970.16;10401096;28;20037;-67
2023/08/05 12:37:01;;;;;;;7.20;4.22;;;;;;;23.30;100.00;100970.34;10406665;28;20119;-68
2023/08/05 12:42:01;;;;;;;5.55;3.88;;;;;;;23.01;100.00;100965.47;10403434;28;20046;-68
2023/08/05 12:47:02;;;;;;;6.20;3.53;;;;;;;23.04;100.00;100960.06;10406938;28;20068;-66
2023/08/05 12:52:03;;;;;;;5.47;3.25;;;;;;;22.73;100.00;100960.31;10409667;28;20129;-66
2023/08/05 12:57:04;;;;;;;5.93;3.00;;;;;;;22.25;100.00;100950.19;10384932;28;20065;-66
2023/08/05 13:02:04;;;;;;;3.88;2.78;;;;;;;22.24;100.00;100951.31;10401955;28;20064;-66
2023/08/05 13:07:05;;;;;;;2.70;1.85;;;;;;;22.18;100.00;100942.25;10406755;28;20359;-66
2023/08/05 13:12:06;;;;;;;3.97;1.92;;;;;;;21.99;100.00;100930.53;10408421;28;20069;-66
2023/08/05 13:17:07;;;;;;;3.17;2.15;;;;;;;22.04;100.00;100933.19;10415478;28;20076;-64
2023/08/05 13:22:07;;;;;;;4.78;1.80;;;;;;;22.03;100.00;100934.31;10416493;28;20079;-66
2023/08/05 13:27:07;;;;;;;3.92;2.03;;;;;;;21.81;100.00;100921.28;10404059;28;20057;-67
2023/08/05 13:32:08;;;;;;;2.97;2.00;;;;;;;21.47;100.00;100931.31;10412089;28;20025;-67
2023/08/05 13:37:08;;;;;;;3.13;1.70;;;;;;;21.07;100.00;100928.56;10421608;28;20036;-67
2023/08/05 13:42:09;;;;;;;4.20;2.03;;;;;;;20.81;100.00;100942.44;10417332;28;20048;-67
2023/08/05 13:47:09;;;;;;;4.68;2.88;;;;;;;20.84;100.00;100902.63;10418041;28;20033;-67
2023/08/05 13:52:10;;;;;;;5.63;2.92;;;;;;;21.12;100.00;100918.03;10461402;28;20066;-66
2023/08/05 13:57:10;;;;;;;3.88;2.80;;;;;;;21.20;100.00;100910.00;10461210;28;20040;-67
2023/08/05 14:02:11;;;;;;;5.43;2.30;;;;;;;21.23;100.00;100895.31;10461601;28;20268;-69
2023/08/05 14:07:11;;;;;;;2.53;2.28;;;;;;;20.93;100.00;100903.47;10460199;28;20037;-67
2023/08/05 14:12:12;;;;;;;5.47;3.03;;;;;;;20.66;100.00;100910.94;10461277;28;20041;-66
2023/08/05 14:17:12;;;;;;;4.55;2.22;;;;;;;20.42;100.00;100902.06;10453293;28;20041;-67
2023/08/05 14:22:13;;;;;;;4.65;2.17;;;;;;;20.32;100.00;100898.41;10451209;28;20040;-67
2023/08/05 14:27:13;;;;;;;2.75;1.95;;;;;;;20.27;100.00;100880.94;10460395;28;20052;-67
2023/08/05 14:32:13;;;;;;;3.75;2.25;;;;;;;20.30;100.00;100889.50;10457981;28;20036;-67
2023/08/05 14:37:14;;;;;;;5.90;2.45;;;;;;;20.30;100.00;100872.72;10460139;28;20059;-67
2023/08/05 14:42:14;;;;;;;4.60;2.40;;;;;;;20.12;100.00;100868.19;10447558;28;20060;-67
2023/08/05 14:47:15;;;;;;;5.90;2.78;;;;;;;20.15;100.00;100861.94;10457613;28;20037;-70
2023/08/05 14:52:15;;;;;;;3.00;2.05;;;;;;;20.03;100.00;100836.53;10441478;28;20036;-70
2023/08/05 14:57:16;;;;;;;4.28;2.60;;;;;;;20.06;100.00;100855.47;10442827;28;20036;-68
2023/08/05 15:02:16;;;;;;;2.53;2.13;;;;;;;20.00;100.00;100849.19;10425616;28;20045;-67
2023/08/05 15:07:17;;;;;;;4.60;2.75;;;;;;;19.95;100.00;100855.75;10425729;28;20057;-67
2023/08/05 15:12:17;;;;;;;3.55;3.03;;;;;;;19.91;100.00;100862.28;10421866;28;20053;-67
2023/08/05 15:17:18;;;;;;;7.13;2.47;;;;;;;19.86;100.00;100870.78;10418655;28;20052;-67
2023/08/05 15:22:19;;;;;;;3.88;3.30;;;;;;;19.67;100.00;100865.34;10426693;28;20075;-67
2023/08/05 15:27:19;;;;;;;4.63;3.05;;;;;;;19.55;100.00;100869.53;10428693;28;20060;-67
2023/08/05 15:32:20;;;;;;;3.63;1.83;;;;;;;18.94;100.00;100901.56;10423503;28;20036;-67
2023/08/05 15:37:20;;;;;;;0.80;0.50;;;;;;;17.49;100.00;100918.22;10396728;28;20045;-67
2023/08/05 15:42:21;;;;;;;1.23;0.65;;;;;;;16.41;100.00;100915.81;10399819;28;20799;-67
2023/08/05 15:47:21;;;;;;;1.52;1.00;;;;;;;16.01;100.00;100943.66;10420359;28;20037;-68
2023/08/05 15:52:22;;;;;;;2.70;1.17;;;;;;;15.54;100.00;100923.69;10442888;28;20037;-66
2023/08/05 15:57:22;;;;;;;2.05;1.52;;;;;;;15.11;100.00;100941.91;10439731;28;20044;-69
2023/08/05 16:02:23;;;;;;;1.20;0.93;;;;;;;14.83;100.00;100935.09;10445724;28;20028;-69
2023/08/05 16:07:23;;;;;;;3.47;1.35;;;;;;;14.85;100.00;100935.63;10434704;28;20067;-69
2023/08/05 16:12:24;;;;;;;11.40;2.33;;;;;;;14.78;100.00;100935.94;10443664;28;20034;-70
2023/08/05 16:17:24;;;;;;;5.68;2.50;;;;;;;14.94;100.00;100925.63;10454576;28;20059;-70
2023/08/05 16:22:24;;;;;;;2.65;1.55;;;;;;;15.03;100.00;100934.19;10454659;28;20037;-70
2023/08/05 16:27:25;;;;;;;6.20;1.77;;;;;;;14.83;100.00;100924.00;10432158;28;20044;-69
2023/08/05 16:32:25;;;;;;;6.00;1.98;;;;;;;14.73;100.00;100906.28;10441320;28;20051;-69
2023/08/05 16:37:26;;;;;;;3.63;2.15;;;;;;;14.76;100.00;100891.06;10466595;28;20037;-70
2023/08/05 16:42:26;;;;;;;3.30;2.10;;;;;;;14.64;100.00;100888.59;10450400;28;20042;-70
2023/08/05 16:47:27;;;;;;;7.13;2.50;;;;;;;14.60;100.00;100884.72;10456391;28;20045;-70
2023/08/05 16:52:27;;;;;;;3.17;2.63;;;;;;;14.54;100.00;100880.25;10459184;28;20033;-71
2023/08/05 16:57:28;;;;;;;4.97;3.03;;;;;;;14.55;100.00;100873.59;10469485;28;20036;-71
2023/08/05 17:02:28;;;;;;;3.22;2.30;;;;;;;14.55;100.00;100868.06;10458578;28;20032;-70
2023/08/05 17:07:29;;;;;;;3.05;2.35;;;;;;;14.45;100.00;100885.56;10461909;28;20457;-70
2023/08/05 17:12:29;;;;;;;5.32;2.70;;;;;;;14.54;100.00;100883.03;10471029;28;20440;-71
2023/08/05 17:17:29;;;;;;;4.88;3.20;;;;;;;14.70;100.00;100887.47;10459176;28;20476;-71
2023/08/05 17:22:30;;;;;;;4.32;3.40;;;;;;;14.59;100.00;100843.44;10371124;28;20383;-71
2023/08/05 17:27:30;;;;;;;3.97;3.08;;;;;;;14.65;100.00;100879.13;10354233;28;20504;-71
2023/08/05 17:32:32;;;;;;;5.75;3.00;;;;;;;14.66;100.00;100875.28;10390954;28;20068;-71
2023/08/05 17:37:32;;;;;;;5.03;3.13;;;;;;;14.63;100.00;100850.06;10359554;28;20065;-70
2023/08/05 17:42:33;;;;;;;4.70;3.60;;;;;;;14.75;100.00;100852.53;10351225;28;20084;-71
2023/08/05 17:47:33;;;;;;;7.03;3.92;;;;;;;14.67;100.00;100843.66;10369321;28;20038;-71
2023/08/05 17:52:34;;;;;;;5.57;3.67;;;;;;;14.29;100.00;100776.75;10370712;28;20072;-72
2023/08/05 17:57:34;;;;;;;5.30;3.50;;;;;;;14.67;100.00;100829.81;10366669;28;20046;-71
2023/08/05 18:02:35;;;;;;;4.75;3.65;;;;;;;14.75;100.00;100827.59;10363303;28;20053;-69
2023/08/05 18:07:35;;;;;;;5.35;4.10;;;;;;;14.63;100.00;100837.03;10393421;28;20056;-71
2023/08/05 18:12:36;;;;;;;4.80;3.22;;;;;;;14.60;100.00;100831.25;10410473;28;20041;-71
2023/08/05 18:17:36;;;;;;;4.72;3.58;;;;;;;14.56;100.00;100816.31;10443027;28;20033;-71
2023/08/05 18:22:37;;;;;;;5.65;3.83;;;;;;;14.58;100.00;100812.13;10443897;28;20071;-72
2023/08/05 18:27:37;;;;;;;7.30;3.85;;;;;;;14.55;100.00;100798.78;10443394;28;20037;-71
2023/08/05 18:32:38;;;;;;;5.70;4.15;;;;;;;14.52;100.00;100796.59;10420796;28;20072;-71
2023/08/05 18:37:38;;;;;;;8.30;4.78;;;;;;;14.55;100.00;100796.03;10439354;28;20041;-71
2023/08/05 18:42:39;;;;;;;6.78;4.30;;;;;;;14.52;100.00;100769.72;10444544;28;20060;-71
2023/08/05 18:47:39;;;;;;;9.32;4.00;;;;;;;14.50;100.00;100760.88;10445918;28;20539;-71
2023/08/05 18:52:39;;;;;;;8.07;4.43;;;;;;;14.49;100.00;100763.91;10444759;28;20041;-71
2023/08/05 18:57:40;;;;;;;10.68;5.85;;;;;;;14.45;100.00;100766.44;10441513;28;20044;-71
2023/08/05 19:02:41;;;;;;;8.45;5.20;;;;;;;14.43;100.00;100767.84;10440283;28;20079;-71
2023/08/05 19:07:43;;;;;;;10.07;5.05;;;;;;;14.35;100.00;100769.25;10444058;28;20086;-71
2023/08/05 19:12:45;;;;;;;9.38;5.00;;;;;;;14.24;100.00;100757.38;10443619;28;20730;-71
2023/08/05 19:17:46;;;;;;;7.40;5.45;;;;;;;14.26;100.00;100766.25;10444003;28;20118;-71
2023/08/05 19:22:46;;;;;;;8.57;5.30;;;;;;;14.25;100.00;100763.75;10443279;28;20064;-71
2023/08/05 19:27:47;;;;;;;7.78;4.53;;;;;;;14.18;100.00;100775.13;10440348;28;20045;-72
2023/08/05 19:32:47;;;;;;;7.85;5.57;;;;;;;14.12;100.00;100782.59;10442070;28;20465;-71
2023/08/05 19:37:48;;;;;;;11.52;6.35;;;;;;;14.14;100.00;100774.03;10440513;28;20063;-72
2023/08/05 19:42:48;;;;;;;9.18;6.15;;;;;;;14.12;100.00;100773.47;10441370;28;20044;-70
2023/08/05 19:47:49;;;;;;;8.50;5.72;;;;;;;14.09;100.00;100771.25;10424837;28;20052;-69
2023/08/05 19:52:49;;;;;;;11.35;6.50;;;;;;;14.02;100.00;100766.00;10439470;28;20059;-72
2023/08/05 19:57:50;;;;;;;11.43;7.95;;;;;;;13.90;100.00;100751.66;10438418;28;20033;-71
2023/08/05 20:02:51;;;;;;;12.02;8.38;;;;;;;13.97;100.00;100751.34;10461219;28;20116;-70
2023/08/05 20:07:52;;;;;;;12.00;8.27;;;;;;;13.97;100.00;100754.13;10443806;28;20041;-71
2023/08/05 20:12:52;;;;;;;13.70;9.48;;;;;;;13.90;100.00;100757.19;10444404;28;20033;-70
2023/08/05 20:17:53;;;;;;;15.80;9.88;;;;;;;13.94;100.00;100763.81;10464332;28;20036;-71
2023/08/05 20:22:53;;;;;;;14.00;9.45;;;;;;;13.99;100.00;100754.66;10461197;28;20032;-71
2023/08/05 20:27:54;;;;;;;15.23;9.82;;;;;;;13.99;100.00;100743.59;10487903;28;20260;-71
2023/08/05 20:32:55;;;;;;;14.57;9.90;;;;;;;13.99;100.00;100743.59;10478057;28;20045;-71
2023/08/05 20:37:56;;;;;;;18.02;10.73;;;;;;;13.92;100.00;100741.94;10472046;28;20067;-71
2023/08/05 20:42:56;;;;;;;21.25;11.13;;;;;;;13.88;100.00;100743.63;10489364;28;20052;-68
2023/08/05 20:47:57;;;;;;;24.60;13.18;;;;;;;13.89;100.00;100731.44;10472529;28;20037;-70
2023/08/05 20:52:57;;;;;;;21.08;12.05;;;;;;;13.88;100.00;100726.19;10483723;28;20040;-70
2023/08/05 20:57:58;;;;;;;25.88;13.55;;;;;;;13.84;100.00;100719.56;10482749;28;20044;-70
2023/08/05 21:02:59;;;;;;;22.10;14.18;;;;;;;13.85;100.00;100722.06;10486659;28;20067;-70
2023/08/05 21:07:59;;;;;;;28.17;15.27;;;;;;;13.90;100.00;100707.38;10456985;28;20029;-70
2023/08/05 21:13:00;;;;;;;21.60;14.43;;;;;;;13.91;100.00;100712.63;10467978;28;20033;-70
2023/08/05 21:18:01;;;;;;;23.88;14.63;;;;;;;13.97;100.00;100712.59;10399018;28;20083;-71
2023/08/05 21:23:02;;;;;;;28.88;15.32;;;;;;;13.95;100.00;100709.28;10423638;28;20040;-70
2023/08/05 21:28:03;;;;;;;22.83;13.85;;;;;;;13.93;100.00;100713.19;10476710;28;20142;-68
2023/08/05 21:33:04;;;;;;;23.77;13.88;;;;;;;13.91;100.00;100709.88;10481299;28;20090;-71
2023/08/05 21:38:04;;;;;;;22.90;14.07;;;;;;;13.89;100.00;100701.00;10484209;28;20051;-71
2023/08/05 21:43:05;;;;;;;21.98;12.18;;;;;;;13.83;100.00;100696.59;10478852;28;20051;-70
2023/08/05 21:48:06;;;;;;;17.60;11.52;;;;;;;13.80;100.00;100691.59;10487476;28;20064;-71
2023/08/05 21:53:07;;;;;;;26.42;15.35;;;;;;;13.80;100.00;100682.50;10480326;28;20036;-71
2023/08/05 21:58:07;;;;;;;35.20;21.92;;;;;;;13.68;100.00;100657.88;10485885;28;20037;-71
2023/08/05 22:03:10;;;;;;;43.97;20.73;;;;;;;13.81;100.00;100676.69;10462509;28;20029;-70
2023/08/05 22:08:10;;;;;;;31.40;17.33;;;;;;;13.84;100.00;100672.50;10482254;28;20045;-70
2023/08/05 22:13:11;;;;;;;27.08;14.93;;;;;;;13.83;100.00;100668.94;10471142;28;20111;-70
2023/08/05 22:18:12;;;;;;;22.33;13.20;;;;;;;13.79;100.00;100656.75;10476599;28;20110;-69
2023/08/05 22:23:12;;;;;;;17.40;10.32;;;;;;;13.81;100.00;100654.53;10473957;28;20044;-71
2023/08/05 22:28:13;;;;;;;17.65;10.13;;;;;;;13.76;100.00;100650.97;10478966;28;20037;-71
2023/08/05 22:33:13;;;;;;;16.23;10.60;;;;;;;13.75;100.00;100644.59;10477439;28;20037;-71
2023/08/05 22:38:14;;;;;;;18.20;11.10;;;;;;;13.77;100.00;100647.09;10466896;28;20399;-71
2023/08/05 22:43:14;;;;;;;20.77;11.32;;;;;;;13.76;100.00;100629.63;10485002;28;20104;-71